createdAt,value
2018-08-04T00:00:46.433Z,21.13
2018-08-04T00:03:18.486Z,21.15
2018-08-04T00:05:48.472Z,21.11
2018-08-04T00:08:19.105Z,21.07
2018-08-04T00:10:51.847Z,21.05
2018-08-04T00:13:26.189Z,21.02
2018-08-04T00:15:58.425Z,21.01
2018-08-04T00:18:29.150Z,20.99
2018-08-04T00:20:59.690Z,20.93
2018-08-04T00:23:31.062Z,20.89
2018-08-04T00:26:02.473Z,20.90
2018-08-04T00:28:32.895Z,20.88
2018-08-04T00:31:03.318Z,20.88
2018-08-04T00:33:38.062Z,20.87
2018-08-04T00:36:08.297Z,20.85
2018-08-04T00:38:38.273Z,20.80
2018-08-04T00:41:09.057Z,20.77
2018-08-04T00:43:39.372Z,20.75
2018-08-04T00:46:10.387Z,20.70
2018-08-04T00:48:41.228Z,20.64
2018-08-04T00:51:12.259Z,20.57
2018-08-04T00:53:42.405Z,20.52
2018-08-04T00:56:13.405Z,20.55
2018-08-04T00:58:43.897Z,20.56
2018-08-04T01:01:14.431Z,20.55
2018-08-04T01:03:44.539Z,20.47
2018-08-04T01:06:14.914Z,20.40
2018-08-04T01:08:44.941Z,20.35
2018-08-04T01:11:17.159Z,20.31
2018-08-04T01:13:49.653Z,20.33
2018-08-04T01:16:23.320Z,20.32
2018-08-04T01:18:53.288Z,20.30
2018-08-04T01:21:24.643Z,20.26
2018-08-04T01:23:55.459Z,20.25
2018-08-04T01:26:26.319Z,20.20
2018-08-04T01:28:56.317Z,20.21
2018-08-04T01:31:44.997Z,20.22
2018-08-04T01:34:15.067Z,20.16
2018-08-04T01:36:46.942Z,20.13
2018-08-04T01:39:17.907Z,20.10
2018-08-04T01:41:50.891Z,20.03
2018-08-04T01:44:21.325Z,20.07
2018-08-04T01:46:53.120Z,20.02
2018-08-04T01:49:23.117Z,20.00
2018-08-04T01:51:53.510Z,19.95
2018-08-04T01:54:23.662Z,19.91
2018-08-04T01:56:53.726Z,19.83
2018-08-04T01:59:23.842Z,19.83
2018-08-04T02:01:54.610Z,19.80
2018-08-04T02:04:24.619Z,19.74
2018-08-04T02:06:54.662Z,19.69
2018-08-04T02:09:24.690Z,19.67
2018-08-04T02:11:55.154Z,19.61
2018-08-04T02:14:25.250Z,19.55
2018-08-04T02:16:56.092Z,19.51
2018-08-04T02:19:33.775Z,19.51
2018-08-04T02:22:04.610Z,19.58
2018-08-04T02:24:48.765Z,19.60
2018-08-04T02:27:18.774Z,19.56
2018-08-04T02:29:49.581Z,19.54
2018-08-04T02:32:20.085Z,19.48
2018-08-04T02:34:50.082Z,19.44
2018-08-04T02:37:20.134Z,19.42
2018-08-04T02:39:50.348Z,19.35
2018-08-04T02:42:20.841Z,19.30
2018-08-04T02:44:50.912Z,19.24
2018-08-04T02:47:20.906Z,19.25
2018-08-04T02:49:51.434Z,19.24
2018-08-04T02:52:21.456Z,19.21
2018-08-04T02:54:52.448Z,19.18
2018-08-04T02:57:22.521Z,19.17
2018-08-04T02:59:52.791Z,19.15
2018-08-04T03:02:22.788Z,19.12
2018-08-04T03:04:52.778Z,19.08
2018-08-04T03:07:22.846Z,19.06
2018-08-04T03:09:52.832Z,19.04
2018-08-04T03:12:22.857Z,19.03
2018-08-04T03:14:53.630Z,19.02
2018-08-04T03:17:24.225Z,19.01
2018-08-04T03:19:54.286Z,18.99
2018-08-04T03:22:24.345Z,18.97
2018-08-04T03:24:54.422Z,18.94
2018-08-04T03:27:24.485Z,18.94
2018-08-04T03:29:54.866Z,18.85
2018-08-04T03:32:24.765Z,18.84
2018-08-04T03:34:54.742Z,18.84
2018-08-04T03:37:25.411Z,18.85
2018-08-04T03:39:55.419Z,18.83
2018-08-04T03:42:27.546Z,18.83
2018-08-04T03:44:59.329Z,18.81
2018-08-04T03:47:29.498Z,18.77
2018-08-04T03:50:03.558Z,18.80
2018-08-04T03:52:33.941Z,18.79
2018-08-04T03:55:04.823Z,18.78
2018-08-04T03:57:34.874Z,18.78
2018-08-04T04:00:06.248Z,18.76
2018-08-04T04:02:36.399Z,18.80
2018-08-04T04:05:06.464Z,18.82
2018-08-04T04:07:36.477Z,18.85
2018-08-04T04:10:07.127Z,18.91
2018-08-04T04:12:39.072Z,18.93
2018-08-04T04:15:10.098Z,18.94
2018-08-04T04:17:45.322Z,19.00
2018-08-04T04:20:16.896Z,19.02
2018-08-04T04:22:46.928Z,19.03
2018-08-04T04:25:16.917Z,19.06
2018-08-04T04:27:46.894Z,19.06
2018-08-04T04:30:17.221Z,19.15
2018-08-04T04:32:47.354Z,19.24
2018-08-04T04:35:17.354Z,19.32
2018-08-04T04:37:47.360Z,19.40
2018-08-04T04:40:18.186Z,19.47
2018-08-04T04:42:48.175Z,19.58
2018-08-04T04:45:18.665Z,19.68
2018-08-04T04:47:48.615Z,19.78
2018-08-04T04:50:18.624Z,19.90
2018-08-04T04:52:48.589Z,20.03
2018-08-04T04:55:18.537Z,20.14
2018-08-04T04:57:49.585Z,20.30
2018-08-04T05:00:21.086Z,20.46
2018-08-04T05:02:51.038Z,20.64
2018-08-04T05:05:21.229Z,20.78
2018-08-04T05:07:51.232Z,20.95
2018-08-04T05:10:21.329Z,21.14
2018-08-04T05:12:51.901Z,21.31
2018-08-04T05:15:22.224Z,21.46
2018-08-04T05:17:52.186Z,21.60
2018-08-04T05:20:23.102Z,21.70
2018-08-04T05:22:56.867Z,21.81
2018-08-04T05:25:27.599Z,21.93
2018-08-04T05:27:58.231Z,22.01
2018-08-04T05:30:28.496Z,22.09
2018-08-04T05:33:00.088Z,22.18
2018-08-04T05:35:30.094Z,22.30
2018-08-04T05:38:00.383Z,22.41
2018-08-04T05:40:32.271Z,22.58
2018-08-04T05:43:02.230Z,22.67
2018-08-04T05:45:34.198Z,22.76
2018-08-04T05:48:04.280Z,22.87
2018-08-04T05:50:34.232Z,22.94
2018-08-04T05:53:04.342Z,22.99
2018-08-04T05:55:34.379Z,23.04
2018-08-04T05:58:06.173Z,23.11
2018-08-04T06:00:36.390Z,23.15
2018-08-04T06:03:06.335Z,23.19
2018-08-04T06:05:36.320Z,23.22
2018-08-04T06:08:06.332Z,23.21
2018-08-04T06:10:36.337Z,23.24
2018-08-04T06:13:06.428Z,23.26
2018-08-04T06:15:36.791Z,23.26
2018-08-04T06:18:08.664Z,23.25
2018-08-04T06:20:38.684Z,23.25
2018-08-04T06:23:11.118Z,23.23
2018-08-04T06:25:41.148Z,23.22
2018-08-04T06:28:19.733Z,23.22
2018-08-04T06:30:49.793Z,23.20
2018-08-04T06:33:19.885Z,23.23
2018-08-04T06:35:49.939Z,23.26
2018-08-04T06:38:20.073Z,23.25
2018-08-04T06:40:50.046Z,23.17
2018-08-04T06:43:20.127Z,23.09
2018-08-04T06:45:50.659Z,22.96
2018-08-04T06:48:20.621Z,22.92
2018-08-04T06:50:50.593Z,22.95
2018-08-04T06:53:21.216Z,22.94
2018-08-04T06:55:52.018Z,22.92
2018-08-04T06:58:22.924Z,22.89
2018-08-04T07:00:53.196Z,22.87
2018-08-04T07:03:24.975Z,22.88
2018-08-04T07:05:55.124Z,22.85
2018-08-04T07:08:25.759Z,22.82
2018-08-04T07:10:58.333Z,22.78
2018-08-04T07:13:29.686Z,22.75
2018-08-04T07:15:59.738Z,22.71
2018-08-04T07:18:33.895Z,22.69
2018-08-04T07:21:04.708Z,22.72
2018-08-04T07:23:34.942Z,22.71
2018-08-04T07:26:05.493Z,22.72
2018-08-04T07:28:35.552Z,22.71
2018-08-04T07:31:05.562Z,22.77
2018-08-04T07:33:35.609Z,22.82
2018-08-04T07:36:06.670Z,22.89
2018-08-04T07:38:40.800Z,22.96
2018-08-04T07:41:11.817Z,23.02
2018-08-04T07:43:41.898Z,23.13
2018-08-04T07:46:12.271Z,23.22
2018-08-04T07:48:43.308Z,23.29
2018-08-04T07:51:13.825Z,23.38
2018-08-04T07:53:43.754Z,23.48
2018-08-04T07:56:13.738Z,23.55
2018-08-04T07:58:43.731Z,23.62
2018-08-04T08:01:15.150Z,23.66
2018-08-04T08:03:45.177Z,23.72
2018-08-04T08:06:16.733Z,23.84
2018-08-04T08:08:46.897Z,23.92
2018-08-04T08:11:17.716Z,24.01
2018-08-04T08:13:48.737Z,24.12
2018-08-04T08:16:19.672Z,24.20
2018-08-04T08:19:08.506Z,24.32
2018-08-04T08:21:38.445Z,24.50
2018-08-04T08:24:09.869Z,24.64
2018-08-04T08:26:40.283Z,24.80
2018-08-04T08:29:10.247Z,25.04
2018-08-04T08:31:40.664Z,25.34
2018-08-04T08:34:10.680Z,25.75
2018-08-04T08:36:44.535Z,26.18
2018-08-04T08:39:14.593Z,26.67
2018-08-04T08:41:45.260Z,26.96
2018-08-04T08:44:17.770Z,27.28
2018-08-04T08:46:47.755Z,27.48
2018-08-04T08:49:17.961Z,27.72
2018-08-04T08:51:47.869Z,27.85
2018-08-04T08:54:21.071Z,27.95
2018-08-04T08:56:52.474Z,27.98
2018-08-04T08:59:24.738Z,28.02
2018-08-04T09:01:54.743Z,28.11
2018-08-04T09:04:24.689Z,28.22
2018-08-04T09:06:56.235Z,28.31
2018-08-04T09:09:39.477Z,28.31
2018-08-04T09:12:09.529Z,28.31
2018-08-04T09:14:40.362Z,28.24
2018-08-04T09:17:11.386Z,28.24
2018-08-04T09:19:41.335Z,28.40
2018-08-04T09:22:11.284Z,28.47
2018-08-04T09:24:41.288Z,28.39
2018-08-04T09:27:16.434Z,28.55
2018-08-04T09:29:46.424Z,28.59
2018-08-04T09:32:16.885Z,28.40
2018-08-04T09:34:47.141Z,28.41
2018-08-04T09:37:17.661Z,28.33
2018-08-04T09:39:49.902Z,28.43
2018-08-04T09:42:23.233Z,28.56
2018-08-04T09:44:53.561Z,28.70
2018-08-04T09:47:26.048Z,28.71
2018-08-04T09:49:56.246Z,28.70
2018-08-04T09:52:27.564Z,28.79
2018-08-04T09:55:12.498Z,28.93
2018-08-04T09:57:43.235Z,28.95
2018-08-04T10:00:19.224Z,29.00
2018-08-04T10:02:49.376Z,29.02
2018-08-04T10:05:20.378Z,28.97
2018-08-04T10:07:51.698Z,28.88
2018-08-04T10:10:21.609Z,28.94
2018-08-04T10:12:54.874Z,28.91
2018-08-04T10:15:27.435Z,28.93
2018-08-04T10:17:58.975Z,28.93
2018-08-04T10:20:31.633Z,29.06
2018-08-04T10:23:02.321Z,29.32
2018-08-04T10:25:33.392Z,29.40
2018-08-04T10:28:05.888Z,29.46
2018-08-04T10:30:38.577Z,29.54
2018-08-04T10:33:08.513Z,29.58
2018-08-04T10:35:39.240Z,29.60
2018-08-04T10:38:10.409Z,29.82
2018-08-04T10:40:43.806Z,30.03
2018-08-04T10:43:14.250Z,30.06
2018-08-04T10:45:44.560Z,30.06
2018-08-04T10:48:14.686Z,30.23
2018-08-04T10:50:45.975Z,30.33
2018-08-04T10:53:18.734Z,30.48
2018-08-04T10:55:50.414Z,30.46
2018-08-04T10:58:20.779Z,30.44
2018-08-04T11:00:52.138Z,30.39
2018-08-04T11:03:23.714Z,30.34
2018-08-04T11:05:57.568Z,30.27
2018-08-04T11:08:27.719Z,30.31
2018-08-04T11:11:00.161Z,30.52
2018-08-04T11:13:31.248Z,30.77
2018-08-04T11:16:01.824Z,30.92
2018-08-04T11:18:31.867Z,31.12
2018-08-04T11:21:04.701Z,31.13
2018-08-04T11:23:35.899Z,31.16
2018-08-04T11:26:06.046Z,31.19
2018-08-04T11:28:37.834Z,31.14
2018-08-04T11:31:08.249Z,31.16
2018-08-04T11:33:41.837Z,31.03
2018-08-04T11:36:12.685Z,31.20
2018-08-04T11:38:43.606Z,31.39
2018-08-04T11:41:16.779Z,31.22
2018-08-04T11:43:48.534Z,30.98
2018-08-04T11:46:21.938Z,30.67
2018-08-04T11:48:51.873Z,30.41
2018-08-04T11:51:22.500Z,30.22
2018-08-04T11:53:54.211Z,30.10
2018-08-04T11:56:29.374Z,30.04
2018-08-04T11:59:00.745Z,30.11
2018-08-04T12:01:31.386Z,30.30
2018-08-04T12:04:01.362Z,30.70
2018-08-04T12:06:33.635Z,30.85
2018-08-04T12:09:05.283Z,30.92
2018-08-04T12:11:36.302Z,31.10
2018-08-04T12:14:08.224Z,31.29
2018-08-04T12:16:38.841Z,31.23
2018-08-04T12:19:09.661Z,31.10
2018-08-04T12:21:40.435Z,30.94
2018-08-04T12:24:11.857Z,30.86
2018-08-04T12:26:41.875Z,30.98
2018-08-04T12:29:12.175Z,30.99
2018-08-04T12:31:42.357Z,31.31
2018-08-04T12:34:13.709Z,31.58
2018-08-04T12:36:44.234Z,31.50
2018-08-04T12:39:15.190Z,31.57
2018-08-04T12:41:45.941Z,31.56
2018-08-04T12:44:18.713Z,31.43
2018-08-04T12:46:51.297Z,31.36
2018-08-04T12:49:22.188Z,31.26
2018-08-04T12:52:09.318Z,31.16
2018-08-04T12:54:43.844Z,31.08
2018-08-04T12:57:17.781Z,30.97
2018-08-04T12:59:49.829Z,31.02
2018-08-04T13:02:22.791Z,31.06
2018-08-04T13:04:53.223Z,31.04
2018-08-04T13:07:25.508Z,31.01
2018-08-04T13:09:57.230Z,31.00
2018-08-04T13:12:27.915Z,31.04
2018-08-04T13:14:59.627Z,31.23
2018-08-04T13:17:30.377Z,31.53
2018-08-04T13:20:04.356Z,31.77
2018-08-04T13:22:34.354Z,31.72
2018-08-04T13:25:07.454Z,31.71
2018-08-04T13:27:37.521Z,31.62
2018-08-04T13:30:07.441Z,31.65
2018-08-04T13:32:41.959Z,31.67
2018-08-04T13:35:14.522Z,31.56
2018-08-04T13:37:44.570Z,31.47
2018-08-04T13:40:16.373Z,31.40
2018-08-04T13:42:48.471Z,31.29
2018-08-04T13:45:18.562Z,31.37
2018-08-04T13:47:52.670Z,31.40
2018-08-04T13:50:22.774Z,31.23
2018-08-04T13:52:56.676Z,31.19
2018-08-04T13:55:28.501Z,31.16
2018-08-04T13:57:58.431Z,31.12
2018-08-04T14:00:29.116Z,31.13
2018-08-04T14:02:59.245Z,31.06
2018-08-04T14:05:32.177Z,31.04
2018-08-04T14:08:02.280Z,31.23
2018-08-04T14:10:32.530Z,31.58
2018-08-04T14:13:04.496Z,31.81
2018-08-04T14:15:36.204Z,31.98
2018-08-04T14:18:08.207Z,32.15
2018-08-04T14:20:38.822Z,32.41
2018-08-04T14:23:08.759Z,32.69
2018-08-04T14:25:40.241Z,32.79
2018-08-04T14:28:11.835Z,32.78
2018-08-04T14:30:43.551Z,32.56
2018-08-04T14:33:14.894Z,32.30
2018-08-04T14:35:45.901Z,32.41
2018-08-04T14:38:17.579Z,32.55
2018-08-04T14:40:48.432Z,32.79
2018-08-04T14:43:18.396Z,33.05
2018-08-04T14:45:50.621Z,32.88
2018-08-04T14:48:21.074Z,32.81
2018-08-04T14:50:51.684Z,32.75
2018-08-04T14:53:23.903Z,32.72
2018-08-04T14:55:54.864Z,32.71
2018-08-04T14:58:25.964Z,32.70
2018-08-04T15:00:58.470Z,32.44
2018-08-04T15:03:29.283Z,31.92
2018-08-04T15:06:03.289Z,31.66
2018-08-04T15:08:34.846Z,31.45
2018-08-04T15:11:04.749Z,31.39
2018-08-04T15:13:38.648Z,31.44
2018-08-04T15:16:09.955Z,31.26
2018-08-04T15:18:39.962Z,31.37
2018-08-04T15:21:10.348Z,31.15
2018-08-04T15:23:40.967Z,31.06
2018-08-04T15:26:11.003Z,30.88
2018-08-04T15:28:41.310Z,30.79
2018-08-04T15:31:13.314Z,30.68
2018-08-04T15:33:45.052Z,30.86
2018-08-04T15:36:15.429Z,31.05
2018-08-04T15:38:45.427Z,31.37
2018-08-04T15:41:18.138Z,31.46
2018-08-04T15:43:48.930Z,31.51
2018-08-04T15:46:19.325Z,31.48
2018-08-04T15:48:50.306Z,31.62
2018-08-04T15:51:21.117Z,31.73
2018-08-04T15:53:51.510Z,31.70
2018-08-04T15:56:22.705Z,31.75
2018-08-04T15:58:58.602Z,31.95
2018-08-04T16:01:31.645Z,31.92
2018-08-04T16:04:02.182Z,31.65
2018-08-04T16:06:32.446Z,31.31
2018-08-04T16:09:05.214Z,31.18
2018-08-04T16:11:40.159Z,31.01
2018-08-04T16:14:10.981Z,30.77
2018-08-04T16:16:44.772Z,30.72
2018-08-04T16:19:14.735Z,30.62
2018-08-04T16:21:45.269Z,30.61
2018-08-04T16:24:15.997Z,30.54
2018-08-04T16:26:50.073Z,30.65
2018-08-04T16:29:21.407Z,30.73
2018-08-04T16:31:53.629Z,30.88
2018-08-04T16:34:24.479Z,30.81
2018-08-04T16:36:58.024Z,30.75
2018-08-04T16:39:28.467Z,30.58
2018-08-04T16:42:01.291Z,30.44
2018-08-04T16:44:32.254Z,30.31
2018-08-04T16:47:08.462Z,30.25
2018-08-04T16:49:41.337Z,30.09
2018-08-04T16:52:11.293Z,30.00
2018-08-04T16:54:41.302Z,29.87
2018-08-04T16:57:13.834Z,29.81
2018-08-04T16:59:49.090Z,29.76
2018-08-04T17:02:20.563Z,29.63
2018-08-04T17:04:51.496Z,29.61
2018-08-04T17:07:22.309Z,29.58
2018-08-04T17:10:03.243Z,29.53
2018-08-04T17:12:34.647Z,29.50
2018-08-04T17:15:05.549Z,29.47
2018-08-04T17:17:43.026Z,29.44
2018-08-04T17:20:21.364Z,29.38
2018-08-04T17:22:54.259Z,29.31
2018-08-04T17:25:26.733Z,29.27
2018-08-04T17:27:58.692Z,29.26
2018-08-04T17:30:30.515Z,29.24
2018-08-04T17:33:03.919Z,29.22
2018-08-04T17:35:37.848Z,29.23
2018-08-04T17:38:12.834Z,29.22
2018-08-04T17:40:47.454Z,29.17
2018-08-04T17:43:18.242Z,29.14
2018-08-04T17:45:48.348Z,29.12
2018-08-04T17:48:21.230Z,29.06
2018-08-04T17:50:52.015Z,28.99
2018-08-04T17:53:23.483Z,28.94
2018-08-04T17:55:53.417Z,28.89
2018-08-04T17:58:25.289Z,28.82
2018-08-04T18:00:55.207Z,28.77
2018-08-04T18:03:26.452Z,28.64
2018-08-04T18:05:56.393Z,28.53
2018-08-04T18:08:26.452Z,28.43
2018-08-04T18:10:57.545Z,28.34
2018-08-04T18:13:29.579Z,28.24
2018-08-04T18:15:59.507Z,28.11
2018-08-04T18:18:29.771Z,27.99
2018-08-04T18:21:00.442Z,27.90
2018-08-04T18:23:30.550Z,27.76
2018-08-04T18:26:01.251Z,27.62
2018-08-04T18:28:32.394Z,27.48
2018-08-04T18:31:03.786Z,27.32
2018-08-04T18:33:43.942Z,27.19
2018-08-04T18:36:14.716Z,27.07
2018-08-04T18:38:45.170Z,26.91
2018-08-04T18:41:19.711Z,26.77
2018-08-04T18:43:51.392Z,26.65
2018-08-04T18:46:21.603Z,26.50
2018-08-04T18:48:52.821Z,26.37
2018-08-04T18:51:22.805Z,26.30
2018-08-04T18:53:53.655Z,26.23
2018-08-04T18:56:24.034Z,26.18
2018-08-04T18:58:54.215Z,26.07
2018-08-04T19:01:25.619Z,25.94
2018-08-04T19:03:56.224Z,25.79
2018-08-04T19:06:26.257Z,25.67
2018-08-04T19:08:57.063Z,25.54
2018-08-04T19:11:30.958Z,25.40
2018-08-04T19:14:05.108Z,25.29
2018-08-04T19:16:37.054Z,25.18
2018-08-04T19:19:09.794Z,25.03
2018-08-04T19:21:40.397Z,24.97
2018-08-04T19:24:10.598Z,24.90
2018-08-04T19:26:41.554Z,24.78
2018-08-04T19:29:13.767Z,24.63
2018-08-04T19:31:51.979Z,24.55
2018-08-04T19:34:23.450Z,24.51
2018-08-04T19:36:53.622Z,24.40
2018-08-04T19:39:24.787Z,24.33
2018-08-04T19:41:56.014Z,24.26
2018-08-04T19:44:27.115Z,24.16
2018-08-04T19:46:57.222Z,24.08
2018-08-04T19:49:27.752Z,23.99
2018-08-04T19:51:58.358Z,23.95
2018-08-04T19:54:31.134Z,23.88
2018-08-04T19:57:02.334Z,23.73
2018-08-04T19:59:35.958Z,23.59
2018-08-04T20:02:06.666Z,23.59
2018-08-04T20:04:41.177Z,23.55
2018-08-04T20:07:18.244Z,23.52
2018-08-04T20:09:51.252Z,23.46
2018-08-04T20:12:21.138Z,23.40
2018-08-04T20:14:53.477Z,23.37
2018-08-04T20:17:23.404Z,23.27
2018-08-04T20:19:55.684Z,23.23
2018-08-04T20:22:26.327Z,23.20
2018-08-04T20:24:56.567Z,23.14
2018-08-04T20:27:26.479Z,23.11
2018-08-04T20:30:32.406Z,23.04
2018-08-04T20:33:05.635Z,22.97
2018-08-04T20:35:50.277Z,22.92
2018-08-04T20:38:22.214Z,22.92
2018-08-04T20:40:58.390Z,22.93
2018-08-04T20:43:30.413Z,22.96
2018-08-04T20:46:04.509Z,22.96
2018-08-04T20:48:36.491Z,22.92
2018-08-04T20:51:07.466Z,22.90
2018-08-04T20:53:44.374Z,22.90
2018-08-04T20:56:15.154Z,22.85
2018-08-04T20:58:47.745Z,22.84
2018-08-04T21:01:30.349Z,22.89
2018-08-04T21:04:03.235Z,22.96
2018-08-04T21:06:35.446Z,22.94
2018-08-04T21:09:09.807Z,22.95
2018-08-04T21:11:58.479Z,22.92
2018-08-04T21:14:30.246Z,22.91
2018-08-04T21:17:01.845Z,22.93
2018-08-04T21:19:34.838Z,22.96
2018-08-04T21:22:05.692Z,22.92
2018-08-04T21:24:40.034Z,22.90
2018-08-04T21:27:14.501Z,22.89
2018-08-04T21:29:46.457Z,22.90
2018-08-04T21:32:18.420Z,22.90
2018-08-04T21:34:50.446Z,22.86
2018-08-04T21:37:20.479Z,22.82
2018-08-04T21:39:52.577Z,22.78
2018-08-04T21:42:23.294Z,22.76
2018-08-04T21:44:56.007Z,22.74
2018-08-04T21:47:27.976Z,22.70
2018-08-04T21:50:00.475Z,22.58
2018-08-04T21:52:32.961Z,22.52
2018-08-04T21:55:05.290Z,22.40
2018-08-04T21:57:35.266Z,22.30
2018-08-04T22:00:10.462Z,22.28
2018-08-04T22:02:49.807Z,22.29
2018-08-04T22:05:23.018Z,22.25
2018-08-04T22:08:06.329Z,22.37
2018-08-04T22:10:37.221Z,22.50
2018-08-04T22:15:48.259Z,22.65
2018-08-04T22:18:19.262Z,22.71
2018-08-04T22:20:49.234Z,22.73
2018-08-04T22:23:19.385Z,22.72
2018-08-04T22:25:49.599Z,22.71
2018-08-04T22:28:19.649Z,22.65
2018-08-04T22:30:50.537Z,22.50
2018-08-04T22:33:21.847Z,22.47
2018-08-04T22:35:51.798Z,22.45
2018-08-04T22:38:21.755Z,22.39
2018-08-04T22:40:55.424Z,22.32
2018-08-04T22:43:25.350Z,22.21
2018-08-04T22:46:03.249Z,22.16
2018-08-04T22:48:33.559Z,22.11
2018-08-04T22:51:03.497Z,22.09
2018-08-04T22:53:34.248Z,22.03
2018-08-04T22:56:06.699Z,21.91
2018-08-04T22:58:38.230Z,21.92
2018-08-04T23:01:08.231Z,21.92
2018-08-04T23:03:38.817Z,21.87
2018-08-04T23:06:08.802Z,21.81
2018-08-04T23:08:45.249Z,21.77
2018-08-04T23:11:15.186Z,21.72
2018-08-04T23:13:46.524Z,21.67
2018-08-04T23:16:17.142Z,21.63
2018-08-04T23:18:47.192Z,21.56
2018-08-04T23:21:17.199Z,21.50
2018-08-04T23:23:47.822Z,21.47
2018-08-04T23:26:17.824Z,21.40
2018-08-04T23:28:47.849Z,21.42
2018-08-04T23:31:18.545Z,21.44
2018-08-04T23:33:48.482Z,21.39
2018-08-04T23:36:18.901Z,21.36
2018-08-04T23:38:49.817Z,21.29
2018-08-04T23:41:19.776Z,21.30
2018-08-04T23:43:49.736Z,21.20
2018-08-04T23:46:19.702Z,21.16
2018-08-04T23:48:50.676Z,21.11
2018-08-04T23:51:21.303Z,21.06
2018-08-04T23:53:53.354Z,21.03
2018-08-04T23:56:24.393Z,21.02
2018-08-04T23:58:55.615Z,20.94
